Time;durP1;ratioP1;P1;durP2;ratioP2;P2;SDS_P1;SDS_P2;PMS_P1;PMS_P2;Temp;Humidity;BMP_temperature;BMP_pressure;BME280_temperature;BME280_humidity;BME280_pressure;Samples;Min_cycle;Max_cycle;Signal;HPM_P1;HPM_P2
2022/06/10 00:01:08;;;;;;;2.77;1.90;;;;;;;11.77;100.00;96909.19;5084402;28;20209;-84
2022/06/10 00:03:36;;;;;;;3.03;1.90;;;;;;;11.82;100.00;96900.41;5086195;28;20291;-84
2022/06/10 00:06:06;;;;;;;5.13;1.93;;;;;;;11.80;100.00;96897.94;5082412;28;20232;-84
2022/06/10 00:08:37;;;;;;;1.90;1.70;;;;;;;11.87;100.00;96906.81;5082999;28;20243;-83
2022/06/10 00:11:06;;;;;;;3.20;1.60;;;;;;;11.75;100.00;96898.59;5079536;28;20223;-84
2022/06/10 00:13:35;;;;;;;3.80;1.70;;;;;;;11.73;100.00;96903.38;5081512;28;20219;-84
2022/06/10 00:16:03;;;;;;;2.77;1.87;;;;;;;11.66;100.00;96897.19;5082651;28;20270;-84
2022/06/10 00:18:32;;;;;;;3.37;1.47;;;;;;;11.72;100.00;96895.50;5084092;28;20209;-84
2022/06/10 00:21:01;;;;;;;3.67;1.80;;;;;;;11.77;100.00;96901.06;5083196;28;20212;-83
2022/06/10 00:23:30;;;;;;;2.93;1.70;;;;;;;11.82;100.00;96906.66;5081555;28;20205;-84
2022/06/10 00:25:57;;;;;;;2.93;1.73;;;;;;;11.87;100.00;96906.81;5075992;28;20231;-84
2022/06/10 00:28:24;;;;;;;2.33;1.40;;;;;;;11.83;100.00;96900.16;5079953;28;20264;-83
2022/06/10 00:30:52;;;;;;;2.07;1.60;;;;;;;11.91;100.00;96904.47;5085993;28;20205;-84
2022/06/10 00:33:20;;;;;;;3.20;1.50;;;;;;;11.82;100.00;96901.25;5083738;28;20205;-83
2022/06/10 00:35:47;;;;;;;2.93;1.50;;;;;;;11.86;100.00;96902.44;5080733;28;20270;-84
2022/06/10 00:38:14;;;;;;;2.03;1.40;;;;;;;11.94;100.00;96904.84;5082430;28;20265;-83
2022/06/10 00:40:45;;;;;;;2.27;1.67;;;;;;;11.94;100.00;96899.44;5083144;28;20214;-83
2022/06/10 00:43:17;;;;;;;2.27;1.57;;;;;;;12.00;100.00;96905.81;5095800;28;20258;-83
2022/06/10 00:46:01;;;;;;;2.23;1.60;;;;;;;11.88;100.00;96900.34;5093087;28;20292;-84
2022/06/10 00:48:41;;;;;;;1.80;1.50;;;;;;;11.88;100.00;96904.91;5101852;28;20218;-84
2022/06/10 00:51:19;;;;;;;1.80;1.30;;;;;;;11.89;100.00;96893.88;5099434;28;20207;-83
2022/06/10 00:53:50;;;;;;;2.60;1.90;;;;;;;11.83;100.00;96894.75;5089084;28;20228;-84
2022/06/10 00:56:23;;;;;;;3.40;2.10;;;;;;;11.72;100.00;96890.91;5104427;28;20285;-83
2022/06/10 00:58:56;;;;;;;3.43;1.70;;;;;;;11.76;100.00;96896.72;5086166;28;20208;-84
2022/06/10 01:01:24;;;;;;;1.73;1.63;;;;;;;11.71;100.00;96881.13;5104555;28;20292;-83
2022/06/10 01:03:53;;;;;;;2.27;1.60;;;;;;;11.68;100.00;96889.69;5097927;28;20197;-84
2022/06/10 01:06:21;;;;;;;4.10;1.67;;;;;;;11.59;100.00;96887.50;5086853;28;20220;-83
2022/06/10 01:08:50;;;;;;;2.63;1.73;;;;;;;11.58;100.00;96883.13;5089721;28;20204;-84
2022/06/10 01:11:39;;;;;;;4.07;1.80;;;;;;;11.61;100.00;96878.13;5103017;28;20208;-84
2022/06/10 01:14:23;;;;;;;2.53;1.83;;;;;;;11.61;100.00;96882.69;5105059;28;20204;-83
2022/06/10 01:16:56;;;;;;;6.10;1.73;;;;;;;11.55;100.00;96886.31;5102623;28;20277;-84
2022/06/10 01:19:50;;;;;;;2.50;1.87;;;;;;;11.48;100.00;96890.94;5104807;28;20196;-84
2022/06/10 01:22:54;;;;;;;2.70;1.93;;;;;;;11.49;100.00;96896.09;5087757;27;20264;-84
2022/06/10 01:25:55;;;;;;;4.97;1.90;;;;;;;11.49;100.00;96890.69;5086426;28;20243;-84
2022/06/10 01:28:37;;;;;;;3.43;1.63;;;;;;;11.48;100.00;96893.66;5087392;27;20279;-84
2022/06/10 01:31:19;;;;;;;3.33;1.70;;;;;;;11.41;100.00;96891.00;5109154;27;20245;-84
2022/06/10 01:34:03;;;;;;;2.83;1.90;;;;;;;11.38;100.00;96892.28;5106612;28;20225;-84
2022/06/10 01:36:40;;;;;;;2.90;1.80;;;;;;;11.39;100.00;96901.22;5103171;27;20218;-84
2022/06/10 01:39:14;;;;;;;2.33;1.77;;;;;;;11.39;100.00;96895.81;5109123;27;20200;-84
2022/06/10 01:41:49;;;;;;;1.80;1.70;;;;;;;11.41;100.00;96903.69;5087235;28;20208;-83
2022/06/10 01:44:24;;;;;;;3.60;1.73;;;;;;;11.39;100.00;96901.22;5082781;28;20214;-85
2022/06/10 01:47:16;;;;;;;2.53;1.87;;;;;;;11.45;100.00;96904.91;5112949;27;20569;-85
2022/06/10 01:49:49;;;;;;;3.93;1.60;;;;;;;11.51;100.00;96895.91;5100825;28;20212;-85
2022/06/10 01:52:23;;;;;;;2.07;1.87;;;;;;;11.53;100.00;96901.91;5099298;28;20634;-84
2022/06/10 01:55:00;;;;;;;2.93;1.60;;;;;;;11.49;100.00;96900.69;5119919;27;20246;-84
2022/06/10 01:57:36;;;;;;;5.53;2.10;;;;;;;11.49;100.00;96901.53;5105110;28;20306;-84
2022/06/10 02:00:08;;;;;;;3.90;2.10;;;;;;;11.43;100.00;96890.78;5099547;28;20252;-85
2022/06/10 02:02:40;;;;;;;3.43;2.10;;;;;;;11.44;100.00;96887.84;5094604;28;20197;-84
2022/06/10 02:05:12;;;;;;;3.20;2.03;;;;;;;11.44;100.00;96882.44;5102036;28;20259;-85
2022/06/10 02:07:43;;;;;;;2.43;1.80;;;;;;;11.37;100.00;96893.31;5099619;28;20207;-85
2022/06/10 02:10:16;;;;;;;4.23;2.93;;;;;;;11.34;100.00;96888.34;5103014;28;20230;-84
2022/06/10 02:12:48;;;;;;;2.50;2.00;;;;;;;11.37;100.00;96889.78;5099347;28;20282;-85
2022/06/10 02:15:20;;;;;;;2.37;2.00;;;;;;;11.42;100.00;96900.75;5095721;28;20208;-84
2022/06/10 02:17:55;;;;;;;2.43;1.77;;;;;;;11.44;100.00;96906.78;5096545;28;20205;-84
2022/06/10 02:20:27;;;;;;;2.83;1.80;;;;;;;11.51;100.00;96906.72;5099604;28;20238;-84
2022/06/10 02:22:57;;;;;;;3.57;2.03;;;;;;;11.52;100.00;96902.97;5087052;28;20204;-84
2022/06/10 02:25:28;;;;;;;3.40;1.93;;;;;;;11.53;100.00;96902.75;5094819;28;20228;-85
2022/06/10 02:28:02;;;;;;;7.30;2.10;;;;;;;11.63;100.00;96913.06;5099062;28;20229;-84
2022/06/10 02:30:34;;;;;;;2.17;1.87;;;;;;;11.60;100.00;96903.50;5099921;28;20234;-84
2022/06/10 02:33:03;;;;;;;4.47;1.90;;;;;;;11.58;100.00;96905.59;5094902;28;20298;-85
2022/06/10 02:35:35;;;;;;;2.10;1.80;;;;;;;11.52;100.00;96900.25;5099204;28;20200;-84
2022/06/10 02:38:12;;;;;;;6.07;2.43;;;;;;;11.46;100.00;96914.69;5095776;28;20247;-84
2022/06/10 02:40:45;;;;;;;3.97;2.10;;;;;;;11.32;100.00;96912.06;5103065;28;20291;-84
2022/06/10 02:43:18;;;;;;;4.80;2.20;;;;;;;11.26;100.00;96915.66;5102587;28;20277;-84
2022/06/10 02:45:57;;;;;;;4.07;1.90;;;;;;;11.29;100.00;96909.84;5102613;28;20228;-84
2022/06/10 02:48:33;;;;;;;3.97;2.00;;;;;;;11.35;100.00;96917.06;5102362;28;20207;-84
2022/06/10 02:51:01;;;;;;;2.67;1.97;;;;;;;11.44;100.00;96920.31;5097093;28;20595;-85
2022/06/10 02:53:29;;;;;;;2.53;1.80;;;;;;;11.43;100.00;96923.22;5097841;28;20540;-85
2022/06/10 02:55:56;;;;;;;3.00;2.10;;;;;;;11.47;100.00;96927.16;5097407;28;20201;-85
2022/06/10 03:01:25;;;;;;;2.17;1.97;;;;;;;11.55;100.00;96930.41;5083133;28;20286;-84
2022/06/10 03:04:21;;;;;;;3.87;1.90;;;;;;;11.59;100.00;96928.91;5078516;28;20209;-84
2022/06/10 03:07:29;;;;;;;2.23;1.90;;;;;;;11.57;100.00;96941.81;5054540;28;20225;-85
2022/06/10 03:10:09;;;;;;;4.97;2.23;;;;;;;11.59;100.00;96938.88;4999061;28;20207;-84
2022/06/10 03:12:40;;;;;;;3.57;1.87;;;;;;;11.61;100.00;96936.78;5000307;28;20309;-84
2022/06/10 03:15:35;;;;;;;3.60;2.00;;;;;;;11.59;100.00;96938.88;5039122;28;20306;-84
2022/06/10 03:18:13;;;;;;;3.60;1.90;;;;;;;11.57;100.00;96930.97;5084301;28;20202;-84
2022/06/10 03:20:53;;;;;;;3.07;1.73;;;;;;;11.64;100.00;96949.88;5088853;28;20204;-84
2022/06/10 03:23:29;;;;;;;3.07;2.17;;;;;;;11.60;100.00;96940.53;5084178;28;20208;-84
2022/06/10 03:26:03;;;;;;;3.53;2.00;;;;;;;11.58;100.00;96953.44;5094379;28;20221;-85
2022/06/10 03:28:35;;;;;;;4.27;2.30;;;;;;;11.58;100.00;96948.88;5089622;28;20207;-84
2022/06/10 03:31:09;;;;;;;2.83;2.10;;;;;;;11.57;100.00;96949.13;5081445;28;20224;-84
2022/06/10 03:33:41;;;;;;;7.10;2.23;;;;;;;11.47;100.00;96954.19;5079749;28;20223;-85
2022/06/10 03:36:13;;;;;;;3.90;2.10;;;;;;;11.37;100.00;96955.53;5083126;28;20205;-83
2022/06/10 03:38:43;;;;;;;3.57;2.20;;;;;;;11.36;100.00;96945.75;5086365;28;20314;-84
2022/06/10 03:41:21;;;;;;;3.20;2.20;;;;;;;11.46;100.00;96957.94;5077201;28;20312;-84
2022/06/10 03:43:51;;;;;;;6.37;2.10;;;;;;;11.46;100.00;96955.25;5087467;28;20229;-85
2022/06/10 03:46:21;;;;;;;3.63;2.30;;;;;;;11.44;100.00;96954.63;5086335;28;20504;-84
2022/06/10 03:48:50;;;;;;;3.40;2.10;;;;;;;11.47;100.00;96962.31;5066845;28;20202;-84
2022/06/10 03:51:20;;;;;;;3.70;1.80;;;;;;;11.46;100.00;96966.06;5070770;28;20299;-84
2022/06/10 03:53:48;;;;;;;5.23;2.00;;;;;;;11.46;100.00;96957.94;5077414;28;20213;-85
2022/06/10 03:56:21;;;;;;;3.00;2.27;;;;;;;11.45;100.00;96953.56;5060358;28;20212;-85
2022/06/10 03:58:48;;;;;;;2.77;2.20;;;;;;;11.37;100.00;96955.53;5068898;28;20284;-84
2022/06/10 04:01:15;;;;;;;5.13;2.47;;;;;;;11.34;100.00;96955.94;5067717;28;20209;-84
2022/06/10 04:03:42;;;;;;;3.80;2.50;;;;;;;11.27;100.00;96952.47;5072103;28;20193;-84
2022/06/10 04:06:09;;;;;;;3.20;2.40;;;;;;;11.32;100.00;96960.75;5066991;28;20221;-84
2022/06/10 04:08:38;;;;;;;3.50;2.70;;;;;;;11.36;100.00;96961.97;5085774;28;20216;-84
2022/06/10 04:11:05;;;;;;;3.80;2.17;;;;;;;11.43;100.00;96961.91;5066905;28;20211;-84
2022/06/10 04:13:32;;;;;;;5.27;2.80;;;;;;;11.41;100.00;96957.75;5066179;28;20281;-84
2022/06/10 04:15:59;;;;;;;5.53;2.60;;;;;;;11.37;100.00;96957.38;5063100;28;20293;-84
2022/06/10 04:18:27;;;;;;;3.50;2.17;;;;;;;11.42;100.00;96954.00;5064226;28;20200;-84
2022/06/10 04:20:54;;;;;;;7.20;2.60;;;;;;;11.36;100.00;96950.31;5064048;28;20227;-84
2022/06/10 04:23:22;;;;;;;5.23;2.40;;;;;;;11.36;100.00;96951.16;5064551;28;20211;-84
2022/06/10 04:25:50;;;;;;;4.00;2.37;;;;;;;11.38;100.00;96965.28;5056090;28;20248;-84
2022/06/10 04:28:17;;;;;;;3.07;2.27;;;;;;;11.36;100.00;96961.97;5061300;28;20239;-84
2022/06/10 04:30:46;;;;;;;5.23;2.10;;;;;;;11.37;100.00;96969.03;5056733;28;20201;-84
2022/06/10 04:33:14;;;;;;;3.50;2.30;;;;;;;11.24;100.00;96966.41;5064988;28;20209;-85
2022/06/10 04:35:44;;;;;;;4.93;2.20;;;;;;;11.25;100.00;96964.53;5060684;28;20209;-85
2022/06/10 04:38:13;;;;;;;4.40;2.00;;;;;;;11.17;100.00;96957.53;5082520;28;20224;-84
2022/06/10 04:40:41;;;;;;;3.73;2.10;;;;;;;11.27;100.00;96975.97;5072216;28;20197;-84
2022/06/10 04:43:10;;;;;;;3.10;2.10;;;;;;;11.33;100.00;96978.63;5062378;28;20219;-84
2022/06/10 04:45:39;;;;;;;5.63;2.10;;;;;;;11.43;100.00;96971.91;5066818;28;20233;-84
2022/06/10 04:48:07;;;;;;;5.63;2.10;;;;;;;11.41;100.00;96965.88;5075818;28;20311;-84
2022/06/10 04:50:34;;;;;;;3.40;2.30;;;;;;;11.38;100.00;96981.50;5074115;28;20197;-84
2022/06/10 04:53:01;;;;;;;3.53;2.20;;;;;;;11.33;100.00;96972.38;5071258;28;20218;-84
2022/06/10 04:55:28;;;;;;;4.37;2.13;;;;;;;11.35;100.00;96971.13;5089907;28;20201;-84
2022/06/10 04:57:55;;;;;;;4.77;2.47;;;;;;;11.36;100.00;96970.09;5086358;28;20241;-84
2022/06/10 05:00:26;;;;;;;3.83;2.20;;;;;;;11.47;100.00;96968.56;5078227;28;20347;-85
2022/06/10 05:02:54;;;;;;;7.00;2.40;;;;;;;11.42;100.00;96972.94;5077451;28;20208;-85
2022/06/10 05:05:22;;;;;;;2.83;2.30;;;;;;;11.42;100.00;96971.06;5080906;28;20216;-84
2022/06/10 05:07:49;;;;;;;3.30;2.20;;;;;;;11.41;100.00;96982.09;5077454;28;20227;-84
2022/06/10 05:10:17;;;;;;;3.23;2.00;;;;;;;11.38;100.00;96980.69;5091774;28;20212;-84
2022/06/10 05:12:45;;;;;;;3.43;2.20;;;;;;;11.34;100.00;96985.69;5093020;28;20205;-84
2022/06/10 05:15:13;;;;;;;3.13;2.27;;;;;;;11.39;100.00;96987.75;5082521;28;20197;-86
2022/06/10 05:17:42;;;;;;;6.60;2.60;;;;;;;11.37;100.00;96974.44;5071139;28;20280;-84
2022/06/10 05:20:13;;;;;;;5.20;2.27;;;;;;;11.45;100.00;96986.03;5079642;28;20224;-85
2022/06/10 05:22:40;;;;;;;4.40;2.00;;;;;;;11.44;100.00;96989.78;5078588;28;20207;-85
2022/06/10 05:25:08;;;;;;;5.40;2.07;;;;;;;11.47;100.00;96989.34;5092709;28;20307;-84
2022/06/10 05:27:35;;;;;;;3.97;2.77;;;;;;;11.47;100.00;96983.94;5076202;28;20225;-85
2022/06/10 05:30:02;;;;;;;8.20;2.50;;;;;;;11.42;100.00;96991.88;5086649;28;20218;-85
2022/06/10 05:32:29;;;;;;;7.80;2.87;;;;;;;11.37;100.00;96990.66;5076873;28;20219;-84
2022/06/10 05:34:57;;;;;;;4.83;2.43;;;;;;;11.35;100.00;96994.63;5087303;28;20219;-84
2022/06/10 05:37:27;;;;;;;3.53;2.50;;;;;;;11.36;100.00;96991.72;5071273;28;20206;-84
2022/06/10 05:39:55;;;;;;;3.37;2.50;;;;;;;11.38;100.00;96989.63;5081240;28;20205;-85
2022/06/10 05:42:22;;;;;;;3.20;2.50;;;;;;;11.46;100.00;96993.09;5084383;28;20205;-84
2022/06/10 05:44:51;;;;;;;3.87;2.70;;;;;;;11.47;100.00;96994.75;5082686;28;20224;-84
2022/06/10 05:47:22;;;;;;;4.87;3.30;;;;;;;11.43;100.00;96998.94;5077066;28;20323;-84
2022/06/10 05:49:52;;;;;;;5.77;2.97;;;;;;;11.39;100.00;96998.56;5098572;28;20205;-83
2022/06/10 05:52:24;;;;;;;4.10;2.80;;;;;;;11.44;100.00;97003.31;5079210;28;20304;-85
2022/06/10 05:54:53;;;;;;;6.17;3.20;;;;;;;11.47;100.00;97008.28;5078683;28;20208;-85
2022/06/10 05:57:21;;;;;;;3.37;2.60;;;;;;;11.45;100.00;96994.16;5075468;28;20197;-85
2022/06/10 05:59:49;;;;;;;3.97;2.53;;;;;;;11.43;100.00;96993.53;5084644;28;20212;-84
2022/06/10 06:02:17;;;;;;;5.17;2.40;;;;;;;11.49;100.00;96995.34;5081078;28;20208;-84
2022/06/10 06:04:44;;;;;;;3.27;2.10;;;;;;;11.48;100.00;96982.91;5085525;28;20205;-84
2022/06/10 06:07:16;;;;;;;4.10;2.50;;;;;;;11.55;100.00;96986.38;5080554;28;20307;-85
2022/06/10 06:09:45;;;;;;;6.10;2.70;;;;;;;11.52;100.00;96989.50;5084518;28;20238;-85
2022/06/10 06:12:12;;;;;;;6.40;3.00;;;;;;;11.53;100.00;96986.59;5071624;28;20432;-84
2022/06/10 06:14:39;;;;;;;4.70;2.50;;;;;;;11.52;100.00;96990.34;5083666;28;20201;-84
2022/06/10 06:17:07;;;;;;;4.03;2.10;;;;;;;11.53;100.00;96988.47;5076445;28;20225;-85
2022/06/10 06:19:35;;;;;;;4.53;2.30;;;;;;;11.62;100.00;96997.97;5081723;28;20243;-84
2022/06/10 06:22:02;;;;;;;4.10;2.40;;;;;;;11.63;100.00;96992.34;5078147;28;20212;-84
2022/06/10 06:24:29;;;;;;;6.67;2.23;;;;;;;11.61;100.00;96990.88;5080085;28;20200;-85
2022/06/10 06:26:58;;;;;;;4.33;2.53;;;;;;;11.65;100.00;96997.53;5071090;28;20225;-84
2022/06/10 06:29:25;;;;;;;5.00;1.93;;;;;;;11.73;100.00;96999.94;5076822;28;20255;-85
2022/06/10 06:31:53;;;;;;;4.10;2.20;;;;;;;11.71;100.00;96997.47;5079251;28;20209;-84
2022/06/10 06:34:21;;;;;;;2.63;1.80;;;;;;;11.69;100.00;96999.56;5089433;28;20217;-84
2022/06/10 06:36:50;;;;;;;3.63;1.87;;;;;;;11.68;100.00;96991.66;5101421;28;20201;-85
2022/06/10 06:39:19;;;;;;;4.83;2.13;;;;;;;11.76;100.00;96999.53;5083165;28;20225;-85
2022/06/10 06:41:47;;;;;;;4.50;2.10;;;;;;;11.81;100.00;96997.00;5085288;28;20224;-85
2022/06/10 06:44:16;;;;;;;4.00;2.10;;;;;;;11.78;100.00;96997.44;5075974;28;20288;-85
2022/06/10 06:46:44;;;;;;;5.70;2.27;;;;;;;11.74;100.00;96982.66;5077863;28;20251;-84
2022/06/10 06:49:16;;;;;;;3.43;2.00;;;;;;;11.71;100.00;96975.00;5079530;28;20215;-84
2022/06/10 06:51:43;;;;;;;3.47;2.00;;;;;;;11.71;100.00;96961.47;5076694;28;20204;-84
2022/06/10 06:54:11;;;;;;;3.23;1.70;;;;;;;11.78;100.00;96964.13;5085230;28;20205;-84
2022/06/10 06:56:38;;;;;;;4.53;2.00;;;;;;;11.79;100.00;96955.78;5084945;28;20589;-84
2022/06/10 06:59:07;;;;;;;3.93;2.20;;;;;;;11.87;100.00;96952.81;5090102;28;20197;-85
2022/06/10 07:01:36;;;;;;;4.10;2.07;;;;;;;11.86;100.00;96951.16;5079740;28;20209;-86
2022/06/10 07:04:04;;;;;;;6.67;2.20;;;;;;;11.86;100.00;96956.56;5084276;28;20217;-84
2022/06/10 07:06:32;;;;;;;5.13;1.90;;;;;;;11.87;100.00;96951.97;5080587;28;20287;-85
2022/06/10 07:08:59;;;;;;;3.13;2.40;;;;;;;11.95;100.00;96955.22;5083513;28;20220;-85
2022/06/10 07:11:26;;;;;;;2.10;1.90;;;;;;;11.95;100.00;96949.81;5091882;28;20262;-85
2022/06/10 07:13:57;;;;;;;3.90;2.50;;;;;;;12.06;100.00;96950.94;5090785;28;20205;-85
2022/06/10 07:16:24;;;;;;;3.00;2.10;;;;;;;12.13;100.00;96955.22;5086274;28;20225;-86
2022/06/10 07:18:53;;;;;;;6.83;2.30;;;;;;;12.12;100.00;96952.75;5090595;28;20205;-85
2022/06/10 07:21:21;;;;;;;2.10;1.90;;;;;;;12.34;100.00;96963.94;5085619;28;20243;-86
2022/06/10 07:23:48;;;;;;;3.33;2.00;;;;;;;12.54;100.00;96958.28;5079098;28;20267;-85
2022/06/10 07:26:16;;;;;;;5.23;1.97;;;;;;;12.78;100.00;96947.34;5092473;28;20193;-84
2022/06/10 07:28:43;;;;;;;3.57;2.17;;;;;;;13.03;100.00;96957.19;5096246;28;20238;-85
2022/06/10 07:31:11;;;;;;;4.20;2.00;;;;;;;13.24;100.00;96951.28;5098047;28;20220;-85
2022/06/10 07:33:38;;;;;;;3.50;1.50;;;;;;;13.52;100.00;96946.03;5090167;28;20204;-85
2022/06/10 07:36:07;;;;;;;3.20;1.63;;;;;;;13.97;100.00;96956.31;5087367;28;20209;-84
2022/06/10 07:38:35;;;;;;;2.90;1.80;;;;;;;14.48;100.00;96949.28;5083018;28;20189;-85
2022/06/10 07:43:47;;;;;;;5.03;1.83;;;;;;;14.91;100.00;96960.50;5077797;28;20223;-84
2022/06/10 07:46:16;;;;;;;4.30;1.80;;;;;;;15.26;100.00;96956.78;5082297;28;20236;-84
2022/06/10 07:48:52;;;;;;;1.90;1.63;;;;;;;15.39;100.00;96953.78;5081750;28;20304;-85
2022/06/10 07:51:21;;;;;;;2.00;1.50;;;;;;;15.37;100.00;96951.28;5073600;28;20269;-87
2022/06/10 07:53:49;;;;;;;2.13;1.60;;;;;;;15.26;100.00;96949.47;5086875;28;20193;-88
2022/06/10 07:56:20;;;;;;;1.47;1.37;;;;;;;14.91;100.00;96943.34;5083661;28;20262;-86
2022/06/10 08:01:54;;;;;;;2.63;1.40;;;;;;;14.93;100.00;96942.06;5085802;28;20208;-88
2022/06/10 08:04:22;;;;;;;2.00;1.50;;;;;;;15.14;100.00;96943.28;5082931;28;20208;-85
2022/06/10 08:06:54;;;;;;;3.13;1.50;;;;;;;15.44;100.00;96938.34;5087187;28;20205;-86
2022/06/10 08:09:22;;;;;;;1.83;1.47;;;;;;;15.51;100.00;96940.91;5085822;28;20201;-86
2022/06/10 08:11:49;;;;;;;4.47;1.77;;;;;;;15.75;100.00;96928.78;5082832;28;20256;-82
2022/06/10 08:14:17;;;;;;;2.80;1.63;;;;;;;16.03;100.00;96913.41;5081906;28;20217;-87
2022/06/10 08:16:44;;;;;;;2.47;1.40;;;;;;;16.37;100.00;96931.31;5099278;28;20228;-87
2022/06/10 08:19:12;;;;;;;2.60;1.50;;;;;;;16.66;100.00;96925.72;5073433;28;20220;-87
2022/06/10 08:24:25;;;;;;;4.87;1.50;;;;;;;16.99;100.00;96914.63;5084737;28;20197;-87
2022/06/10 08:26:52;;;;;;;2.77;1.63;;;;;;;17.25;100.00;96915.72;5079849;28;20196;-87
2022/06/10 08:29:20;;;;;;;8.47;1.93;;;;;;;17.60;96.27;96909.75;5080240;28;20207;-88
2022/06/10 08:31:47;;;;;;;4.13;1.80;;;;;;;17.64;94.85;96913.63;5079337;28;20197;-87
2022/06/10 08:34:15;;;;;;;5.20;1.83;;;;;;;17.95;97.05;96912.72;5086588;28;20216;-87
2022/06/10 08:36:42;;;;;;;1.73;1.40;;;;;;;18.19;84.83;96906.88;5071407;28;20212;-87
2022/06/10 08:39:10;;;;;;;3.07;1.77;;;;;;;18.39;83.91;96909.72;5083058;28;20219;-86
2022/06/10 08:41:55;;;;;;;4.40;1.63;;;;;;;18.49;81.23;96912.50;5090018;28;20215;-87
2022/06/10 08:44:32;;;;;;;2.83;1.50;;;;;;;18.31;79.66;96902.84;5098263;28;20216;-86
2022/06/10 08:47:27;;;;;;;5.87;1.50;;;;;;;18.39;86.46;96899.59;5105186;27;20395;-87
2022/06/10 08:50:17;;;;;;;3.10;1.83;;;;;;;18.69;83.28;96896.22;5084653;28;20213;-88
2022/06/10 08:52:55;;;;;;;3.10;1.50;;;;;;;18.89;81.72;96911.84;5079948;28;20266;-88
2022/06/10 08:55:37;;;;;;;3.73;1.73;;;;;;;18.97;77.61;96899.59;5084316;28;20208;-88
2022/06/10 08:58:20;;;;;;;3.53;1.60;;;;;;;18.96;77.07;96892.47;5079509;28;20315;-84
2022/06/10 09:00:50;;;;;;;2.55;1.58;;;;;;;19.13;78.92;96893.03;5101619;28;20327;-90
2022/06/10 09:03:21;;;;;;;5.82;1.70;;;;;;;19.28;75.30;96895.78;5077182;28;20293;-85
2022/06/10 09:05:52;;;;;;;2.92;1.80;;;;;;;19.49;77.49;96889.25;5085358;28;20205;-86
2022/06/10 09:08:23;;;;;;;6.00;2.50;;;;;;;19.67;74.20;96887.88;5074666;28;20236;-86
2022/06/10 09:10:55;;;;;;;4.93;1.92;;;;;;;19.70;74.75;96883.78;5080257;28;20286;-86
2022/06/10 09:13:36;;;;;;;7.15;1.40;;;;;;;19.54;69.62;96892.00;5080952;28;20294;-85
2022/06/10 09:16:13;;;;;;;2.40;1.60;;;;;;;19.72;74.51;96892.56;5081140;28;20232;-86
2022/06/10 09:19:00;;;;;;;2.50;1.45;;;;;;;19.61;67.64;96889.81;5081426;28;20443;-83
2022/06/10 09:21:42;;;;;;;2.25;1.38;;;;;;;19.82;69.22;96893.34;5089653;28;20228;-83
2022/06/10 09:24:18;;;;;;;2.78;1.70;;;;;;;19.85;69.80;96887.31;5083209;28;20500;-82
2022/06/10 09:26:54;;;;;;;5.90;1.73;;;;;;;19.79;67.46;96884.88;5098765;27;20193;-81
2022/06/10 09:29:23;;;;;;;2.40;1.50;;;;;;;19.73;67.67;96888.72;5084406;28;20238;-82
2022/06/10 09:31:57;;;;;;;3.80;1.70;;;;;;;19.65;68.06;96879.94;5077619;28;20203;-82
2022/06/10 09:34:37;;;;;;;2.13;1.38;;;;;;;19.59;68.56;96891.16;5077029;28;20281;-82
2022/06/10 09:37:13;;;;;;;5.95;1.63;;;;;;;19.47;66.42;96885.13;5078711;28;20216;-85
2022/06/10 09:42:44;;;;;;;3.25;1.50;;;;;;;19.54;71.83;96877.50;5094065;28;20212;-86
2022/06/10 09:45:23;;;;;;;3.78;1.63;;;;;;;19.73;71.34;96875.84;5090042;28;20201;-87
2022/06/10 09:48:08;;;;;;;1.60;1.30;;;;;;;19.92;69.45;96865.09;5099068;28;20217;-88
2022/06/10 09:50:41;;;;;;;4.82;1.50;;;;;;;20.09;67.61;96878.50;5076330;28;20201;-86
2022/06/10 09:53:30;;;;;;;6.15;1.83;;;;;;;20.21;67.30;96877.09;5076057;28;20216;-86
2022/06/10 09:56:20;;;;;;;2.47;1.60;;;;;;;20.26;68.30;96876.25;5095709;28;20239;-86
2022/06/10 09:59:02;;;;;;;4.53;2.05;;;;;;;20.18;68.10;96874.09;5079179;28;20197;-82
2022/06/10 10:01:38;;;;;;;3.90;1.65;;;;;;;20.24;69.69;96881.22;5071383;28;20259;-86
2022/06/10 10:04:22;;;;;;;3.17;1.60;;;;;;;20.23;68.15;96876.84;5078732;28;20216;-87
2022/06/10 10:06:57;;;;;;;3.30;1.60;;;;;;;20.63;69.65;96873.13;5076989;28;20288;-88
2022/06/10 10:09:40;;;;;;;3.85;1.90;;;;;;;20.70;70.86;96868.97;5083667;28;20227;-88
2022/06/10 10:12:20;;;;;;;5.50;2.25;;;;;;;21.04;72.58;96858.09;5085303;28;20206;-88
2022/06/10 10:14:54;;;;;;;5.30;2.03;;;;;;;21.20;68.95;96858.81;5100497;28;20205;-88
2022/06/10 10:17:57;;;;;;;4.00;1.95;;;;;;;21.36;68.80;96859.53;5088145;28;20251;-87
2022/06/10 10:20:31;;;;;;;7.40;2.20;;;;;;;21.57;70.41;96862.94;5084055;28;20308;-87
2022/06/10 10:23:11;;;;;;;3.53;2.10;;;;;;;21.59;68.52;96863.47;5084715;28;20208;-88
2022/06/10 10:25:41;;;;;;;4.70;1.90;;;;;;;21.32;69.15;96855.72;5087228;28;20291;-88
2022/06/10 10:28:18;;;;;;;4.05;2.05;;;;;;;21.29;70.84;96859.84;5082214;28;20229;-85
2022/06/10 10:30:49;;;;;;;3.92;2.10;;;;;;;21.45;70.51;96852.31;5083962;28;20257;-86
2022/06/10 10:33:18;;;;;;;3.42;1.88;;;;;;;21.60;70.03;96854.97;5079717;28;20259;-86
2022/06/10 10:35:51;;;;;;;2.90;1.73;;;;;;;21.56;69.77;96847.56;5083509;28;20189;-84
2022/06/10 10:38:31;;;;;;;3.22;1.85;;;;;;;21.68;68.54;96845.28;5097997;28;20197;-88
2022/06/10 10:41:01;;;;;;;2.47;1.70;;;;;;;21.48;68.13;96849.81;5087084;28;20213;-88
2022/06/10 10:43:32;;;;;;;5.38;2.00;;;;;;;21.31;69.02;96852.16;5081250;28;20243;-88
2022/06/10 10:46:02;;;;;;;8.52;2.13;;;;;;;21.39;69.71;96837.81;5077874;28;20260;-88
2022/06/10 10:48:33;;;;;;;6.70;2.05;;;;;;;21.49;70.56;96831.41;5085014;28;20227;-88
2022/06/10 10:51:04;;;;;;;3.63;1.80;;;;;;;21.75;70.87;96834.75;5095479;28;20304;-88
2022/06/10 10:53:37;;;;;;;2.75;1.70;;;;;;;21.99;69.13;96843.06;5084785;28;20193;-88
2022/06/10 10:56:07;;;;;;;8.38;2.08;;;;;;;22.06;67.69;96827.84;5089201;28;20242;-86
2022/06/10 11:01:57;;;;;;;3.15;1.85;;;;;;;21.92;66.91;96828.81;5089810;28;20220;-85
2022/06/10 11:04:31;;;;;;;6.45;2.03;;;;;;;22.10;67.03;96825.34;5082483;28;20213;-83
2022/06/10 11:07:14;;;;;;;3.10;1.80;;;;;;;21.99;65.39;96829.31;5078077;28;20211;-87
2022/06/10 11:09:45;;;;;;;2.35;1.83;;;;;;;21.98;66.14;96824.91;5084991;28;20224;-86
2022/06/10 11:12:16;;;;;;;2.22;1.83;;;;;;;22.25;66.53;96831.50;5082573;28;20197;-87
2022/06/10 11:14:47;;;;;;;4.75;1.65;;;;;;;22.25;64.38;96828.75;5082586;28;20205;-87
2022/06/10 11:17:18;;;;;;;3.25;1.83;;;;;;;22.25;62.22;96827.91;5086678;28;20231;-88
2022/06/10 11:20:00;;;;;;;2.78;1.73;;;;;;;22.07;63.93;96823.16;5083043;28;20215;-85
2022/06/10 11:22:31;;;;;;;2.70;1.60;;;;;;;22.12;63.41;96812.09;5077314;28;20208;-86
2022/06/10 11:25:26;;;;;;;1.85;1.48;;;;;;;22.16;62.96;96819.50;5072874;28;20216;-84
2022/06/10 11:28:04;;;;;;;2.30;1.83;;;;;;;22.32;62.92;96822.88;5089396;28;20208;-85
2022/06/10 11:30:42;;;;;;;4.13;1.90;;;;;;;22.30;65.31;96811.34;5103820;28;20205;-84
2022/06/10 11:33:25;;;;;;;4.15;1.63;;;;;;;22.31;62.59;96821.22;5085701;28;20200;-85
2022/06/10 11:36:04;;;;;;;5.15;1.73;;;;;;;22.31;63.46;96803.91;5084216;28;20205;-85
2022/06/10 11:38:34;;;;;;;2.70;1.70;;;;;;;22.47;62.61;96802.59;5103169;27;20200;-89
2022/06/10 11:41:16;;;;;;;2.90;1.98;;;;;;;22.56;61.58;96796.13;5085521;28;20256;-88
2022/06/10 11:43:48;;;;;;;2.47;1.50;;;;;;;22.48;61.94;96794.03;5086821;28;20212;-88
2022/06/10 11:46:23;;;;;;;1.83;1.50;;;;;;;22.63;62.63;96793.84;5082824;28;20324;-88
2022/06/10 11:48:54;;;;;;;2.42;1.60;;;;;;;22.75;62.91;96793.44;5082272;28;20224;-89
2022/06/10 11:51:29;;;;;;;5.68;1.85;;;;;;;22.65;62.81;96794.38;5096936;28;20200;-88
2022/06/10 11:54:01;;;;;;;3.67;1.50;;;;;;;22.63;61.92;96802.09;5085934;28;20208;-88
2022/06/10 11:59:46;;;;;;;5.50;1.40;;;;;;;22.89;62.05;96788.00;5082263;28;20212;-88
2022/06/10 12:02:22;;;;;;;3.88;1.90;;;;;;;23.03;62.29;96791.66;5087351;28;20295;-88
2022/06/10 12:05:03;;;;;;;3.65;1.88;;;;;;;23.06;60.36;96782.78;5086549;28;20667;-88
2022/06/10 12:07:36;;;;;;;3.00;1.70;;;;;;;23.07;59.40;96786.34;5089700;28;20220;-89
2022/06/10 12:10:08;;;;;;;3.15;1.67;;;;;;;22.95;61.06;96771.13;5084439;28;20232;-89
2022/06/10 12:12:41;;;;;;;2.85;1.55;;;;;;;23.09;59.77;96773.91;5084866;28;20212;-88